Time;durP1;ratioP1;P1;durP2;ratioP2;P2;SDS_P1;SDS_P2;PMS_P1;PMS_P2;Temp;Humidity;BMP_temperature;BMP_pressure;BME280_temperature;BME280_humidity;BME280_pressure;Samples;Min_cycle;Max_cycle;Signal;HPM_P1;HPM_P2
2022/05/28 00:00:56;;;;;;;9.87;2.40;;;;;;;8.77;76.96;102063.34;5115243;28;20080;-84
2022/05/28 00:03:23;;;;;;;12.05;2.38;;;;;;;8.74;77.17;102060.97;5098243;28;20024;-85
2022/05/28 00:05:49;;;;;;;9.35;2.30;;;;;;;8.70;77.36;102055.06;5115113;28;20035;-84
2022/05/28 00:08:15;;;;;;;11.93;2.65;;;;;;;8.69;77.25;102047.97;5115336;28;20035;-85
2022/05/28 00:10:41;;;;;;;12.67;2.83;;;;;;;8.70;77.71;102048.84;5115021;28;20433;-85
2022/05/28 00:13:06;;;;;;;11.13;2.23;;;;;;;8.66;77.84;102042.06;5114971;28;20270;-85
2022/05/28 00:15:32;;;;;;;9.70;2.70;;;;;;;8.71;77.75;102050.50;5098022;28;20035;-85
2022/05/28 00:17:59;;;;;;;13.43;2.33;;;;;;;8.73;77.96;102040.38;5114611;28;20067;-84
2022/05/28 00:20:25;;;;;;;13.82;2.47;;;;;;;8.73;78.98;102046.59;5098597;28;20089;-85
2022/05/28 00:22:53;;;;;;;9.05;2.40;;;;;;;8.73;77.81;102037.66;5114512;28;20027;-85
2022/05/28 00:25:19;;;;;;;8.97;2.37;;;;;;;8.73;78.65;102033.06;5115062;28;20023;-85
2022/05/28 00:27:45;;;;;;;13.98;2.30;;;;;;;8.75;78.25;102033.78;5114725;28;20038;-85
2022/05/28 00:30:14;;;;;;;11.30;2.77;;;;;;;8.75;78.95;102033.78;5114752;28;20451;-85
2022/05/28 00:32:43;;;;;;;14.88;2.50;;;;;;;8.78;78.71;102032.56;5115720;28;20036;-84
2022/05/28 00:35:13;;;;;;;14.60;2.60;;;;;;;8.80;78.65;102038.66;5115708;28;20032;-85
2022/05/28 00:37:38;;;;;;;9.95;2.50;;;;;;;8.85;78.50;102032.72;5115340;28;20051;-85
2022/05/28 00:40:10;;;;;;;10.30;2.53;;;;;;;8.94;78.29;102027.06;5114065;28;20471;-86
2022/05/28 00:42:36;;;;;;;10.80;2.88;;;;;;;9.00;78.41;102016.56;5114589;28;20023;-85
2022/05/28 00:45:01;;;;;;;9.80;3.43;;;;;;;9.07;78.81;102025.69;5114605;28;20450;-85
2022/05/28 00:47:27;;;;;;;10.33;2.60;;;;;;;9.07;78.86;102022.97;5115243;28;20501;-85
2022/05/28 00:49:53;;;;;;;13.95;2.75;;;;;;;9.09;78.54;102031.75;5114733;28;20027;-85
2022/05/28 00:52:22;;;;;;;13.38;2.83;;;;;;;9.07;78.57;102031.09;5114455;28;20049;-85
2022/05/28 00:54:49;;;;;;;13.85;2.83;;;;;;;9.05;78.66;102027.69;5114615;28;20073;-85
2022/05/28 00:57:16;;;;;;;13.27;2.77;;;;;;;8.99;79.44;102031.97;5114210;28;20105;-85
2022/05/28 00:59:45;;;;;;;10.90;2.97;;;;;;;8.98;79.25;102029.44;5114123;28;20119;-85
2022/05/28 01:02:19;;;;;;;12.13;2.88;;;;;;;8.98;79.20;102027.59;5113656;28;20072;-86
2022/05/28 01:04:59;;;;;;;10.60;2.45;;;;;;;8.94;79.60;102018.94;5115314;28;20024;-85
2022/05/28 01:07:46;;;;;;;15.35;3.10;;;;;;;8.95;79.37;102020.66;5114159;28;20078;-85
2022/05/28 01:10:21;;;;;;;13.67;3.03;;;;;;;8.96;79.68;102016.06;5114452;28;20058;-86
2022/05/28 01:13:02;;;;;;;11.02;3.05;;;;;;;8.95;79.56;102012.53;5113562;28;20502;-85
2022/05/28 01:15:35;;;;;;;15.55;3.38;;;;;;;8.96;79.23;102010.66;5115684;28;20114;-85
2022/05/28 01:18:19;;;;;;;15.63;3.30;;;;;;;8.99;78.74;102013.03;5113759;28;20046;-85
2022/05/28 01:20:56;;;;;;;10.40;3.08;;;;;;;8.99;79.72;102014.88;5114062;28;20027;-85
2022/05/28 01:23:40;;;;;;;11.73;3.23;;;;;;;9.01;79.02;102005.56;5114054;28;20038;-85
2022/05/28 01:26:18;;;;;;;16.75;3.17;;;;;;;9.01;79.60;102010.16;5115249;28;20118;-85
2022/05/28 01:28:52;;;;;;;16.77;3.17;;;;;;;8.99;80.16;102010.31;5114727;28;20387;-85
2022/05/28 01:31:19;;;;;;;15.15;3.13;;;;;;;8.99;79.57;102004.91;5114437;28;20035;-85
2022/05/28 01:33:46;;;;;;;14.05;3.67;;;;;;;8.96;79.78;102002.53;5096258;28;20043;-85
2022/05/28 01:36:13;;;;;;;11.87;3.00;;;;;;;8.94;79.48;102004.59;5113577;28;20085;-85
2022/05/28 01:38:41;;;;;;;21.17;3.83;;;;;;;8.90;80.09;102012.22;5113757;28;20080;-85
2022/05/28 01:41:10;;;;;;;15.13;3.47;;;;;;;8.86;79.77;101991.06;5096969;28;20047;-85
2022/05/28 01:43:38;;;;;;;14.02;3.45;;;;;;;8.87;80.19;101993.63;5113282;28;20476;-85
2022/05/28 01:46:06;;;;;;;16.55;3.30;;;;;;;8.86;80.18;101997.34;5113394;28;20031;-85
2022/05/28 01:48:32;;;;;;;21.00;3.60;;;;;;;8.84;80.37;101993.97;5113317;28;20076;-85
2022/05/28 01:51:00;;;;;;;17.80;3.60;;;;;;;8.81;80.66;102004.31;5113465;28;20030;-85
2022/05/28 01:56:11;;;;;;;7.45;3.30;;;;;;;8.89;81.32;101998.88;5114050;28;20043;-85
2022/05/28 01:58:37;;;;;;;16.63;3.28;;;;;;;8.91;80.87;102003.06;5096189;28;20031;-85
2022/05/28 02:01:05;;;;;;;15.03;3.03;;;;;;;8.92;81.40;102002.06;5113350;28;20027;-85
2022/05/28 02:03:34;;;;;;;17.02;3.47;;;;;;;8.92;81.46;102001.22;5112658;28;20027;-85
2022/05/28 02:05:59;;;;;;;13.77;3.22;;;;;;;8.89;81.83;101993.47;5114075;28;20059;-85
2022/05/28 02:08:27;;;;;;;13.20;3.17;;;;;;;8.89;81.60;102009.69;5113301;28;20566;-86
2022/05/28 02:11:06;;;;;;;14.88;3.20;;;;;;;8.85;81.81;102005.66;5113023;28;20035;-86
2022/05/28 02:13:50;;;;;;;17.00;3.65;;;;;;;8.85;82.00;102006.47;5111978;28;20076;-85
2022/05/28 02:16:32;;;;;;;15.35;2.88;;;;;;;8.85;82.25;102003.78;5113166;28;20031;-85
2022/05/28 02:19:01;;;;;;;15.70;2.90;;;;;;;8.83;82.17;102007.66;5114000;28;20032;-85
2022/05/28 02:21:34;;;;;;;18.55;4.70;;;;;;;8.83;83.02;102008.53;5113129;28;20087;-85
2022/05/28 02:24:05;;;;;;;15.75;3.10;;;;;;;8.82;82.78;101997.88;5113930;28;20028;-86
2022/05/28 02:26:52;;;;;;;15.05;2.92;;;;;;;8.80;82.46;102003.47;5113731;28;20122;-85
2022/05/28 02:29:19;;;;;;;15.02;3.75;;;;;;;8.73;82.71;102000.59;5112805;28;20024;-85
2022/05/28 02:31:49;;;;;;;13.17;3.13;;;;;;;8.74;82.84;102001.44;5113004;28;20471;-85
2022/05/28 02:34:15;;;;;;;18.85;4.15;;;;;;;8.72;83.11;101989.97;5113341;28;20118;-85
2022/05/28 02:36:41;;;;;;;17.42;3.60;;;;;;;8.67;83.05;101990.50;5112744;28;20024;-85
2022/05/28 02:39:10;;;;;;;15.13;3.00;;;;;;;8.68;83.31;101988.63;5112417;28;20395;-86
2022/05/28 02:41:35;;;;;;;14.77;3.22;;;;;;;8.69;83.61;101991.16;5112580;28;20044;-85
2022/05/28 02:44:01;;;;;;;17.43;3.53;;;;;;;8.67;83.68;101979.66;5096014;28;20043;-86
2022/05/28 02:46:26;;;;;;;13.20;3.15;;;;;;;8.67;83.88;101990.50;5113054;28;20077;-85
2022/05/28 02:48:52;;;;;;;16.63;3.33;;;;;;;8.65;84.51;101988.97;5113499;28;20028;-85
2022/05/28 02:51:20;;;;;;;15.57;3.10;;;;;;;8.65;84.67;101989.84;5113228;28;20142;-85
2022/05/28 02:53:48;;;;;;;8.80;2.63;;;;;;;8.70;84.46;101981.19;5113554;28;20050;-85
2022/05/28 02:56:14;;;;;;;12.48;3.72;;;;;;;8.69;85.13;101976.78;5112794;28;20115;-85
2022/05/28 02:58:40;;;;;;;18.92;3.50;;;;;;;8.71;85.25;101980.16;5113829;28;20111;-85
2022/05/28 03:01:17;;;;;;;14.60;3.03;;;;;;;8.74;85.10;101977.09;5113770;28;20039;-85
2022/05/28 03:03:43;;;;;;;11.52;2.92;;;;;;;8.73;85.19;101975.41;5112218;28;20038;-85
2022/05/28 03:06:08;;;;;;;17.98;3.55;;;;;;;8.73;85.34;101976.25;5112430;28;20019;-85
2022/05/28 03:08:34;;;;;;;14.23;2.97;;;;;;;8.73;85.64;101970.84;5112650;28;20024;-85
2022/05/28 03:10:59;;;;;;;12.10;2.60;;;;;;;8.71;86.04;101962.06;5096156;28;20040;-86
2022/05/28 03:13:25;;;;;;;20.43;3.20;;;;;;;8.77;86.51;101968.66;5112396;28;20031;-85
2022/05/28 03:15:50;;;;;;;12.00;2.70;;;;;;;8.81;86.24;101966.41;5096217;28;20061;-85
2022/05/28 03:18:15;;;;;;;11.77;2.60;;;;;;;8.85;86.48;101970.47;5111944;28;20428;-85
2022/05/28 03:20:41;;;;;;;15.40;2.40;;;;;;;8.85;86.90;101968.59;5112608;28;20490;-85
2022/05/28 03:23:06;;;;;;;13.38;2.50;;;;;;;8.90;86.61;101973.47;5112309;28;20539;-85
2022/05/28 03:25:34;;;;;;;17.27;2.83;;;;;;;8.90;86.70;101977.03;5115455;28;20524;-85
2022/05/28 03:27:59;;;;;;;12.35;2.55;;;;;;;8.87;86.24;101976.53;5117200;28;20041;-86
2022/05/28 03:30:25;;;;;;;11.40;3.07;;;;;;;8.80;86.41;101978.25;5115680;28;20471;-85
2022/05/28 03:32:50;;;;;;;13.73;2.93;;;;;;;8.74;86.92;101977.09;5116625;28;20031;-85
2022/05/28 03:35:16;;;;;;;16.27;3.03;;;;;;;8.66;87.07;101982.53;5098836;28;20043;-85
2022/05/28 03:37:41;;;;;;;13.95;3.00;;;;;;;8.59;87.62;101983.25;5099485;28;20024;-85
2022/05/28 03:40:08;;;;;;;14.20;3.07;;;;;;;8.53;87.85;101977.69;5117576;28;20056;-85
2022/05/28 03:42:34;;;;;;;13.98;3.38;;;;;;;8.49;87.77;101981.75;5098788;28;20024;-86
2022/05/28 03:44:59;;;;;;;14.57;3.10;;;;;;;8.45;87.70;101978.56;5116485;28;20035;-85
2022/05/28 03:47:24;;;;;;;17.17;2.77;;;;;;;8.44;88.13;101979.56;5116397;28;20027;-85
2022/05/28 03:49:50;;;;;;;17.88;3.22;;;;;;;8.41;88.73;101980.75;5098445;28;20028;-85
2022/05/28 03:52:16;;;;;;;12.57;2.60;;;;;;;8.42;89.05;101984.28;5099300;28;20031;-85
2022/05/28 03:54:44;;;;;;;10.67;2.83;;;;;;;8.41;89.17;101985.28;5115075;28;20032;-85
2022/05/28 03:57:31;;;;;;;10.88;2.75;;;;;;;8.43;89.05;101991.41;5099067;28;20028;-85
2022/05/28 03:59:57;;;;;;;13.05;3.03;;;;;;;8.46;89.28;101998.31;5098131;28;20110;-85
2022/05/28 04:02:24;;;;;;;12.80;2.90;;;;;;;8.49;89.69;101992.56;5114998;28;20032;-86
2022/05/28 04:04:49;;;;;;;19.13;3.03;;;;;;;8.50;90.06;101996.97;5115336;28;20076;-85
2022/05/28 04:07:15;;;;;;;13.10;3.30;;;;;;;8.52;89.85;102001.19;5115262;28;20386;-85
2022/05/28 04:09:41;;;;;;;19.63;3.00;;;;;;;8.55;90.87;101998.13;5115292;28;20031;-85
2022/05/28 04:12:07;;;;;;;13.50;3.03;;;;;;;8.58;90.26;102005.91;5116067;28;20030;-87
2022/05/28 04:14:32;;;;;;;21.15;2.80;;;;;;;8.62;90.38;102003.69;5114794;28;20479;-85
2022/05/28 04:16:58;;;;;;;11.53;3.43;;;;;;;8.66;90.23;102002.31;5097909;28;20043;-85
2022/05/28 04:19:23;;;;;;;15.43;2.70;;;;;;;8.70;90.47;102005.53;5116196;28;20069;-85
2022/05/28 04:21:49;;;;;;;13.77;2.87;;;;;;;8.73;90.28;102007.91;5098808;28;20039;-85
2022/05/28 04:24:14;;;;;;;11.83;3.10;;;;;;;8.75;90.12;101998.59;5114865;28;20190;-85
2022/05/28 04:26:40;;;;;;;20.55;3.28;;;;;;;8.79;90.32;102004.47;5116389;27;20036;-86
2022/05/28 04:29:05;;;;;;;11.80;3.07;;;;;;;8.85;90.17;102003.78;5116132;28;20066;-85
2022/05/28 04:31:31;;;;;;;9.73;2.27;;;;;;;8.95;90.80;102007.13;5115574;28;20055;-85
2022/05/28 04:33:56;;;;;;;15.30;2.30;;;;;;;9.07;89.98;102012.16;5097778;28;20062;-85
2022/05/28 04:36:22;;;;;;;13.77;2.80;;;;;;;9.13;90.11;102017.69;5114618;28;20038;-85
2022/05/28 04:38:48;;;;;;;16.37;3.10;;;;;;;9.19;90.08;102010.72;5097180;28;20053;-85
2022/05/28 04:41:13;;;;;;;14.18;2.40;;;;;;;9.28;89.44;102011.50;5114441;28;20379;-85
2022/05/28 04:43:39;;;;;;;17.90;2.77;;;;;;;9.34;89.46;102012.66;5097430;28;20074;-85
2022/05/28 04:46:04;;;;;;;10.60;2.30;;;;;;;9.40;89.75;102015.50;5081397;28;20036;-85
2022/05/28 04:48:30;;;;;;;17.05;2.63;;;;;;;9.45;89.49;102015.81;5114630;28;20027;-85
2022/05/28 04:50:55;;;;;;;10.23;2.40;;;;;;;9.48;89.66;102020.03;5097363;28;20042;-85
2022/05/28 04:53:21;;;;;;;13.90;3.13;;;;;;;9.55;89.56;102012.00;5114267;28;20028;-85
2022/05/28 04:55:46;;;;;;;15.00;2.60;;;;;;;9.58;89.21;102012.53;5097459;28;20479;-85
2022/05/28 04:58:13;;;;;;;9.55;2.47;;;;;;;9.63;89.25;102012.81;5113698;28;20181;-85
2022/05/28 05:00:40;;;;;;;15.00;2.67;;;;;;;9.68;89.21;102019.56;5114110;28;20474;-85
2022/05/28 05:03:05;;;;;;;13.85;3.88;;;;;;;9.71;89.26;102027.31;5114026;28;20065;-85
2022/05/28 05:05:31;;;;;;;15.43;2.60;;;;;;;9.75;89.11;102028.66;5097041;28;20032;-85
2022/05/28 05:07:57;;;;;;;12.70;2.70;;;;;;;9.80;89.05;102027.09;5097302;28;20039;-85
2022/05/28 05:10:22;;;;;;;15.43;3.00;;;;;;;9.82;89.09;102030.44;5113310;28;20032;-86
2022/05/28 05:12:48;;;;;;;13.02;2.72;;;;;;;9.91;89.17;102039.34;5114301;28;20371;-92
2022/05/28 05:15:14;;;;;;;12.23;2.50;;;;;;;9.97;88.70;102033.19;5081408;28;20031;-95
2022/05/28 05:17:39;;;;;;;15.90;2.47;;;;;;;10.06;87.98;102036.69;5116105;28;20083;-95
2022/05/28 05:20:06;;;;;;;13.50;2.70;;;;;;;10.15;88.51;102037.47;5114959;28;20069;-94
2022/05/28 05:22:34;;;;;;;15.25;2.70;;;;;;;10.21;88.09;102041.31;5114815;28;20032;-93
2022/05/28 05:25:00;;;;;;;10.98;1.92;;;;;;;10.26;87.56;102041.59;5116095;28;20038;-89
2022/05/28 05:27:26;;;;;;;16.70;2.37;;;;;;;10.34;87.32;102044.28;5115129;28;20027;-90
2022/05/28 05:29:51;;;;;;;12.45;2.58;;;;;;;10.37;86.67;102038.47;5097141;28;20023;-92
2022/05/28 05:32:22;;;;;;;11.50;2.33;;;;;;;10.45;86.85;102045.69;5114292;28;20110;-92
2022/05/28 05:34:47;;;;;;;17.73;2.50;;;;;;;10.53;87.82;102048.31;5114919;28;20394;-91
2022/05/28 05:37:15;;;;;;;14.17;2.33;;;;;;;10.62;86.01;102041.78;5114576;28;20028;-94
2022/05/28 05:39:41;;;;;;;7.85;1.83;;;;;;;10.72;85.74;102046.94;5114054;28;20051;-91
2022/05/28 05:42:10;;;;;;;12.20;1.88;;;;;;;10.79;85.04;102041.56;5114398;28;20027;-93
2022/05/28 05:44:36;;;;;;;13.77;1.92;;;;;;;10.87;84.36;102053.19;5114631;28;20020;-91
2022/05/28 05:47:02;;;;;;;13.60;1.87;;;;;;;10.97;83.99;102047.47;5113537;28;20088;-88
2022/05/28 05:49:40;;;;;;;10.23;1.40;;;;;;;11.03;82.55;102057.59;5097272;28;20028;-91
2022/05/28 05:52:08;;;;;;;10.00;1.40;;;;;;;11.12;80.83;102052.91;5114572;28;20031;-93
2022/05/28 05:54:33;;;;;;;7.95;1.02;;;;;;;11.20;79.97;102063.63;5116086;28;20035;-92
2022/05/28 05:57:06;;;;;;;6.47;1.23;;;;;;;11.23;80.20;102051.56;5114014;28;20372;-92
2022/05/28 05:59:32;;;;;;;10.18;1.25;;;;;;;11.34;79.43;102053.78;5097641;28;20157;-94
2022/05/28 06:02:03;;;;;;;9.50;1.10;;;;;;;11.46;78.45;102051.41;5097660;28;20065;-91
2022/05/28 06:04:31;;;;;;;9.00;1.70;;;;;;;11.57;77.59;102053.63;5114741;28;20063;-93
2022/05/28 06:06:56;;;;;;;9.98;1.65;;;;;;;11.72;75.94;102055.44;5114454;28;20023;-92
2022/05/28 06:09:22;;;;;;;8.60;1.13;;;;;;;11.90;75.93;102053.13;5115688;28;20474;-92
2022/05/28 06:11:47;;;;;;;5.73;1.40;;;;;;;12.22;74.00;102050.94;5115039;28;20045;-92
2022/05/28 06:14:13;;;;;;;9.37;1.50;;;;;;;12.41;71.94;102054.81;5116056;28;20364;-93
2022/05/28 06:16:39;;;;;;;10.53;1.40;;;;;;;12.51;71.59;102056.38;5115160;28;20062;-92
2022/05/28 06:19:08;;;;;;;8.07;0.80;;;;;;;12.73;71.90;102052.53;5116975;28;20028;-93
2022/05/28 06:21:34;;;;;;;8.00;0.73;;;;;;;12.79;70.14;102062.63;5115554;28;20030;-92
2022/05/28 06:24:01;;;;;;;6.50;1.20;;;;;;;12.81;70.46;102059.69;5115528;28;20032;-93
2022/05/28 06:26:29;;;;;;;10.38;1.10;;;;;;;12.84;69.72;102069.34;5116747;28;20038;-94
2022/05/28 06:28:55;;;;;;;10.18;1.25;;;;;;;12.80;68.55;102069.75;5115398;28;20490;-90
2022/05/28 06:31:20;;;;;;;12.43;1.07;;;;;;;12.72;66.36;102067.16;5116736;28;20023;-88
2022/05/28 06:33:46;;;;;;;4.23;0.80;;;;;;;12.75;66.09;102066.78;5114548;28;20036;-85
2022/05/28 06:36:15;;;;;;;8.27;1.33;;;;;;;12.82;65.97;102070.38;5112868;28;20823;-85
2022/05/28 06:38:40;;;;;;;6.93;1.00;;;;;;;12.81;66.24;102074.16;5112604;28;20070;-84
2022/05/28 06:41:06;;;;;;;5.63;0.93;;;;;;;12.85;66.14;102065.59;5112745;28;20027;-85
2022/05/28 06:43:33;;;;;;;4.87;0.80;;;;;;;12.79;64.42;102059.88;5095674;28;20365;-85
2022/05/28 06:46:07;;;;;;;8.27;1.10;;;;;;;12.79;66.01;102069.94;5113657;28;20463;-85
2022/05/28 06:48:32;;;;;;;7.43;0.80;;;;;;;12.70;62.79;102060.28;5112916;28;20383;-85
2022/05/28 06:51:04;;;;;;;7.90;1.37;;;;;;;12.61;62.86;102071.31;5113161;28;20034;-85
2022/05/28 06:53:45;;;;;;;7.65;1.30;;;;;;;12.63;64.16;102071.94;5096803;28;20028;-85
2022/05/28 06:56:11;;;;;;;7.22;0.82;;;;;;;12.69;62.97;102075.75;5113924;28;20030;-84
2022/05/28 06:58:38;;;;;;;10.80;0.70;;;;;;;12.65;63.20;102071.72;5096923;28;20036;-84
2022/05/28 07:01:06;;;;;;;5.90;0.90;;;;;;;12.60;62.83;102068.78;5116518;28;20094;-85
2022/05/28 07:03:33;;;;;;;7.53;1.00;;;;;;;12.68;63.00;102075.94;5116373;28;20036;-85
2022/05/28 07:05:59;;;;;;;5.72;1.00;;;;;;;12.81;62.80;102076.88;5098935;28;20035;-85
2022/05/28 07:08:26;;;;;;;6.18;0.80;;;;;;;12.97;61.08;102083.88;5116363;28;20036;-84
2022/05/28 07:10:56;;;;;;;5.82;0.80;;;;;;;13.04;60.83;102075.75;5116492;28;20061;-85
2022/05/28 07:13:23;;;;;;;9.83;1.00;;;;;;;13.08;61.61;102082.47;5116718;28;20106;-85
2022/05/28 07:15:49;;;;;;;4.57;0.98;;;;;;;13.06;61.21;102078.28;5116009;28;20118;-85
2022/05/28 07:18:15;;;;;;;6.78;0.90;;;;;;;13.10;60.82;102088.56;5116926;28;20103;-86
2022/05/28 07:20:41;;;;;;;9.17;1.23;;;;;;;13.14;60.49;102086.28;5116081;28;20407;-85
2022/05/28 07:23:18;;;;;;;6.35;1.13;;;;;;;13.08;60.26;102079.75;5115967;28;20034;-85
2022/05/28 07:25:44;;;;;;;5.13;1.67;;;;;;;12.97;59.15;102086.59;5116972;28;20475;-85
2022/05/28 07:28:27;;;;;;;8.60;1.00;;;;;;;12.89;60.65;102077.75;5098706;28;20039;-85
2022/05/28 07:30:57;;;;;;;6.77;0.73;;;;;;;12.81;60.11;102084.19;5115732;28;20083;-85
2022/05/28 07:33:25;;;;;;;6.28;1.17;;;;;;;12.72;60.18;102088.97;5116288;28;20554;-85
2022/05/28 07:35:53;;;;;;;5.82;1.00;;;;;;;12.63;60.00;102088.28;5115667;28;20395;-85
2022/05/28 07:38:19;;;;;;;7.63;1.00;;;;;;;12.63;59.68;102080.09;5115604;28;20055;-86
2022/05/28 07:40:45;;;;;;;5.83;0.77;;;;;;;12.62;59.23;102080.31;5115230;28;20063;-85
2022/05/28 07:43:12;;;;;;;7.93;1.27;;;;;;;12.67;59.07;102077.84;5115271;28;20118;-87
2022/05/28 07:45:41;;;;;;;5.63;0.88;;;;;;;12.89;59.08;102081.31;5115326;28;20023;-86
2022/05/28 07:48:07;;;;;;;7.70;1.27;;;;;;;13.21;57.53;102078.94;5116779;28;20085;-85
2022/05/28 07:50:33;;;;;;;6.47;0.83;;;;;;;13.53;56.80;102083.94;5114961;28;20020;-85
2022/05/28 07:52:59;;;;;;;7.28;1.13;;;;;;;13.87;57.07;102077.50;5116009;28;20091;-85
2022/05/28 07:55:25;;;;;;;8.25;1.02;;;;;;;14.05;56.77;102079.63;5115372;28;20481;-86
2022/05/28 07:57:51;;;;;;;6.90;0.90;;;;;;;14.13;56.18;102089.50;5098339;28;20032;-85
2022/05/28 08:00:17;;;;;;;8.52;1.00;;;;;;;14.09;54.40;102088.25;5116164;28;20486;-85
2022/05/28 08:02:43;;;;;;;11.37;0.83;;;;;;;13.97;54.76;102088.88;5115069;28;20028;-85
2022/05/28 08:05:08;;;;;;;5.80;0.85;;;;;;;14.01;54.51;102078.34;5114976;28;20034;-85
2022/05/28 08:07:34;;;;;;;9.73;0.93;;;;;;;13.97;55.18;102080.69;5115991;28;20028;-85
2022/05/28 08:09:59;;;;;;;5.78;0.90;;;;;;;13.89;55.86;102075.41;5114238;28;20031;-85
2022/05/28 08:12:25;;;;;;;6.00;0.90;;;;;;;13.81;54.88;102079.19;5080154;28;20044;-85
2022/05/28 08:14:50;;;;;;;4.13;0.80;;;;;;;13.61;55.31;102079.16;5114506;28;20055;-85
2022/05/28 08:17:17;;;;;;;7.45;0.98;;;;;;;13.43;55.64;102076.97;5097471;28;20112;-84
2022/05/28 08:19:42;;;;;;;7.43;1.10;;;;;;;13.33;56.78;102079.22;5114675;28;20023;-85
2022/05/28 08:24:52;;;;;;;7.00;0.82;;;;;;;13.30;55.12;102075.03;5115553;28;20054;-85
2022/05/28 08:27:17;;;;;;;3.90;0.90;;;;;;;13.31;56.09;102078.59;5114538;28;20028;-85
2022/05/28 08:29:42;;;;;;;8.07;1.10;;;;;;;13.38;55.13;102074.03;5097820;28;20032;-85
2022/05/28 08:32:08;;;;;;;8.60;0.83;;;;;;;13.43;55.02;102071.53;5115860;28;20084;-84
2022/05/28 08:34:33;;;;;;;5.35;1.15;;;;;;;13.63;56.01;102060.69;5080941;28;20499;-85
2022/05/28 08:36:59;;;;;;;8.40;0.90;;;;;;;13.85;54.69;102075.00;5114570;28;20078;-85
2022/05/28 08:39:24;;;;;;;8.00;1.00;;;;;;;14.14;53.98;102072.94;5113709;28;20058;-85
2022/05/28 08:41:57;;;;;;;5.25;0.95;;;;;;;14.42;52.39;102060.09;5114454;28;20023;-85
2022/05/28 08:44:26;;;;;;;6.90;1.23;;;;;;;14.64;51.86;102055.28;5097637;28;20028;-85
2022/05/28 08:46:54;;;;;;;6.18;1.15;;;;;;;14.83;52.52;102057.13;5115136;28;20031;-85
2022/05/28 08:49:24;;;;;;;6.53;0.85;;;;;;;15.01;52.04;102058.31;5113597;28;20498;-85
2022/05/28 08:51:54;;;;;;;7.40;1.05;;;;;;;15.21;50.92;102066.47;5113757;28;20032;-84
2022/05/28 08:54:38;;;;;;;12.98;1.42;;;;;;;15.59;51.38;102061.00;5114037;28;20097;-84
2022/05/28 08:57:18;;;;;;;4.93;0.83;;;;;;;15.95;49.15;102072.38;5114271;28;20114;-85
2022/05/28 08:59:49;;;;;;;8.20;1.02;;;;;;;16.14;47.47;102062.34;5114212;28;20038;-85
2022/05/28 09:02:28;;;;;;;6.07;1.10;;;;;;;16.53;47.00;102062.22;5114572;28;20039;-85
2022/05/28 09:04:57;;;;;;;8.60;0.77;;;;;;;16.65;46.02;102058.50;5114787;28;20120;-85
2022/05/28 09:07:22;;;;;;;7.95;1.10;;;;;;;16.76;47.14;102067.88;5114427;28;20395;-85
2022/05/28 09:09:49;;;;;;;7.20;0.90;;;;;;;16.65;47.58;102063.13;5096838;28;20093;-85
2022/05/28 09:12:24;;;;;;;4.72;1.00;;;;;;;16.27;47.48;102064.13;5114888;28;20058;-85
2022/05/28 09:14:49;;;;;;;5.83;1.20;;;;;;;16.08;47.38;102082.41;5114483;28;20416;-85
2022/05/28 09:17:36;;;;;;;12.23;1.15;;;;;;;15.94;48.90;102073.44;5113626;28;20122;-85
2022/05/28 09:20:15;;;;;;;6.57;1.03;;;;;;;15.81;50.27;102079.84;5114285;28;20023;-86
2022/05/28 09:22:46;;;;;;;7.20;0.80;;;;;;;15.68;51.46;102080.75;5112943;28;20024;-85
2022/05/28 09:25:16;;;;;;;6.32;1.17;;;;;;;15.60;51.37;102070.03;5113462;28;20024;-85
2022/05/28 09:27:57;;;;;;;10.45;1.20;;;;;;;15.40;49.80;102064.69;5113521;28;20039;-85
2022/05/28 09:30:25;;;;;;;7.13;0.88;;;;;;;15.37;49.71;102063.22;5112894;28;20031;-84
2022/05/28 09:33:22;;;;;;;4.70;0.80;;;;;;;15.59;49.62;102058.28;5113234;28;20034;-85
2022/05/28 09:36:00;;;;;;;5.78;1.13;;;;;;;15.86;46.86;102058.13;5114370;28;20027;-85
2022/05/28 09:38:44;;;;;;;11.68;1.30;;;;;;;16.14;44.92;102057.69;5112831;28;20027;-85
2022/05/28 09:41:37;;;;;;;5.25;0.90;;;;;;;16.23;45.74;102051.94;5112911;28;20028;-84
2022/05/28 09:44:32;;;;;;;7.93;1.20;;;;;;;16.37;45.90;102059.00;5113636;28;20035;-84
2022/05/28 09:47:13;;;;;;;5.43;0.77;;;;;;;16.43;45.12;102058.09;5114201;28;20524;-85
2022/05/28 09:49:47;;;;;;;4.03;0.85;;;;;;;16.28;43.77;102057.59;5113399;28;20131;-84
2022/05/28 09:52:13;;;;;;;4.45;0.85;;;;;;;16.35;43.24;102061.09;5112971;28;20039;-85
2022/05/28 09:54:40;;;;;;;9.57;0.95;;;;;;;16.54;43.80;102055.69;5113538;28;20035;-85
2022/05/28 09:57:19;;;;;;;5.60;0.75;;;;;;;16.65;44.43;102050.28;5114170;28;20042;-85
2022/05/28 09:59:49;;;;;;;5.90;1.03;;;;;;;16.65;45.73;102052.16;5112620;28;20030;-85
2022/05/28 10:02:32;;;;;;;6.35;0.90;;;;;;;16.61;45.63;102059.19;5113658;28;20027;-85
2022/05/28 10:05:09;;;;;;;6.90;0.93;;;;;;;16.37;45.51;102048.03;5114007;28;20020;-84
2022/05/28 10:07:48;;;;;;;9.80;1.23;;;;;;;16.33;46.40;102048.69;5112832;28;20023;-85
2022/05/28 10:10:26;;;;;;;11.40;1.02;;;;;;;16.53;46.94;102048.50;5114366;28;20471;-85
2022/05/28 10:12:52;;;;;;;6.20;1.07;;;;;;;17.00;45.03;102035.97;5113183;28;20395;-85
2022/05/28 10:15:21;;;;;;;5.10;1.13;;;;;;;17.15;44.39;102035.59;5112738;28;20027;-85
2022/05/28 10:18:16;;;;;;;5.68;1.10;;;;;;;17.18;44.54;102048.88;5112400;28;20042;-85
2022/05/28 10:20:41;;;;;;;6.25;1.15;;;;;;;16.70;44.88;102043.25;5109645;28;20372;-84
2022/05/28 10:23:19;;;;;;;6.90;1.13;;;;;;;16.76;44.58;102045.13;5112601;28;20035;-84
2022/05/28 10:25:50;;;;;;;6.22;0.98;;;;;;;17.00;41.56;102040.63;5112931;28;20047;-85
2022/05/28 10:28:30;;;;;;;5.82;0.98;;;;;;;17.14;41.97;102036.69;5114240;28;20105;-85
2022/05/28 10:30:57;;;;;;;4.82;1.10;;;;;;;17.40;41.16;102031.06;5112570;28;20032;-85
2022/05/28 10:33:27;;;;;;;4.27;0.73;;;;;;;17.63;40.69;102033.06;5114572;28;20490;-85
2022/05/28 10:35:53;;;;;;;6.25;1.33;;;;;;;17.88;40.07;102028.22;5117948;28;20032;-85
2022/05/28 10:38:25;;;;;;;7.30;1.02;;;;;;;17.66;40.22;102033.41;5117898;28;20114;-85
2022/05/28 10:40:50;;;;;;;9.25;1.10;;;;;;;17.47;39.75;102045.53;5116867;28;20039;-85
2022/05/28 10:43:37;;;;;;;9.83;1.10;;;;;;;17.44;41.39;102037.78;5116242;28;20043;-85
2022/05/28 10:46:37;;;;;;;5.80;1.00;;;;;;;17.72;40.50;102031.66;5117929;28;20058;-85
2022/05/28 10:49:26;;;;;;;6.85;0.93;;;;;;;18.06;37.76;102030.06;5116603;28;20027;-85
2022/05/28 10:52:13;;;;;;;4.07;0.80;;;;;;;18.20;36.63;102032.59;5116446;28;20028;-85
2022/05/28 10:54:48;;;;;;;4.25;0.73;;;;;;;18.56;36.88;102027.94;5117600;28;20028;-84
2022/05/28 10:57:35;;;;;;;4.22;0.95;;;;;;;18.95;36.65;102032.91;5117619;28;20032;-85
2022/05/28 11:00:05;;;;;;;4.57;1.20;;;;;;;19.21;35.25;102018.59;5116437;28;20530;-85
2022/05/28 11:02:33;;;;;;;7.93;1.35;;;;;;;19.32;35.88;102030.63;5116429;28;20475;-85
2022/05/28 11:05:20;;;;;;;4.63;1.03;;;;;;;19.35;35.72;102024.63;5116249;28;20454;-85
2022/05/28 11:08:08;;;;;;;5.25;1.05;;;;;;;19.42;35.42;102035.50;5116888;28;20061;-85
2022/05/28 11:10:44;;;;;;;5.45;1.00;;;;;;;19.59;34.93;102024.50;5115999;28;20122;-85
2022/05/28 11:13:36;;;;;;;6.88;1.10;;;;;;;20.08;34.81;102027.59;5115736;28;20043;-84
2022/05/28 11:16:15;;;;;;;7.95;1.08;;;;;;;19.67;34.74;102029.63;5116574;28;20052;-85
2022/05/28 11:19:01;;;;;;;9.27;1.13;;;;;;;19.35;35.67;102026.56;5116173;28;20441;-85
2022/05/28 11:21:51;;;;;;;5.55;1.02;;;;;;;22.23;31.15;102013.81;5115950;28;20038;-85
2022/05/28 11:24:35;;;;;;;4.72;1.08;;;;;;;25.07;26.31;102015.00;5115697;28;20071;-85
2022/05/28 11:27:16;;;;;;;5.25;0.75;;;;;;;27.62;23.20;102011.88;5116281;28;20030;-85
2022/05/28 11:30:01;;;;;;;2.95;0.88;;;;;;;29.81;20.43;102006.03;5117696;28;20030;-86
2022/05/28 11:32:31;;;;;;;2.90;1.00;;;;;;;29.82;19.98;102002.13;5116559;28;20031;-85
2022/05/28 11:35:14;;;;;;;5.05;1.20;;;;;;;31.07;19.96;102013.19;5115017;28;20067;-85
2022/05/28 11:37:54;;;;;;;4.45;1.23;;;;;;;30.77;18.33;101998.94;5115209;28;20034;-85
2022/05/28 11:40:28;;;;;;;4.75;1.15;;;;;;;31.66;17.51;101993.09;5115127;28;20127;-86
2022/05/28 11:43:09;;;;;;;8.38;1.58;;;;;;;32.09;18.49;101996.13;5116263;28;20069;-91